createdAt,value
2017-10-11T00:00:15.679Z,24.37
2017-10-11T00:02:43.004Z,22.60
2017-10-11T00:05:10.321Z,21.33
2017-10-11T00:07:37.637Z,19.60
2017-10-11T00:10:04.940Z,22.07
2017-10-11T00:12:32.284Z,21.70
2017-10-11T00:14:59.597Z,18.53
2017-10-11T00:17:26.929Z,17.60
2017-10-11T00:19:54.232Z,17.20
2017-10-11T00:22:21.577Z,18.17
2017-10-11T00:24:48.917Z,17.97
2017-10-11T00:27:16.244Z,19.43
2017-10-11T00:29:43.573Z,17.77
2017-10-11T00:32:10.885Z,18.27
2017-10-11T00:34:38.191Z,17.27
2017-10-11T00:37:05.513Z,16.10
2017-10-11T00:39:32.825Z,17.17
2017-10-11T00:42:00.141Z,15.60
2017-10-11T00:44:27.477Z,17.27
2017-10-11T00:46:54.786Z,19.10
2017-10-11T00:49:22.112Z,16.63
2017-10-11T00:51:49.421Z,20.73
2017-10-11T00:54:16.748Z,18.03
2017-10-11T00:56:44.062Z,16.60
2017-10-11T00:59:11.438Z,14.73
2017-10-11T01:01:38.773Z,14.77
2017-10-11T01:04:06.098Z,17.40
2017-10-11T01:06:33.401Z,19.43
2017-10-11T01:09:00.749Z,15.20
2017-10-11T01:11:28.051Z,15.37
2017-10-11T01:13:55.410Z,14.93
2017-10-11T01:16:22.712Z,17.93
2017-10-11T01:18:50.006Z,14.67
2017-10-11T01:21:17.329Z,15.00
2017-10-11T01:23:44.655Z,16.30
2017-10-11T01:26:11.970Z,14.33
2017-10-11T01:28:39.289Z,14.67
2017-10-11T01:31:06.617Z,17.17
2017-10-11T01:33:33.944Z,17.03
2017-10-11T01:36:01.325Z,13.33
2017-10-11T01:38:28.641Z,13.40
2017-10-11T01:40:55.944Z,17.37
2017-10-11T01:43:23.256Z,17.47
2017-10-11T01:45:50.571Z,14.17
2017-10-11T01:48:17.875Z,16.67
2017-10-11T01:50:45.213Z,15.23
2017-10-11T01:53:12.735Z,16.53
2017-10-11T01:55:40.043Z,19.40
2017-10-11T01:58:07.366Z,17.27
2017-10-11T02:00:34.710Z,15.97
2017-10-11T02:03:02.029Z,15.87
2017-10-11T02:05:29.338Z,15.10
2017-10-11T02:07:56.661Z,17.60
2017-10-11T02:10:23.965Z,15.90
2017-10-11T02:12:51.289Z,18.17
2017-10-11T02:15:18.598Z,18.30
2017-10-11T02:17:45.990Z,21.40
2017-10-11T02:20:13.300Z,18.97
2017-10-11T02:22:40.621Z,23.87
2017-10-11T02:25:07.933Z,23.83
2017-10-11T02:27:35.285Z,24.80
2017-10-11T02:30:02.622Z,20.40
2017-10-11T02:32:30.925Z,24.70
2017-10-11T02:34:58.245Z,25.17
2017-10-11T02:37:25.547Z,25.50
2017-10-11T02:39:52.868Z,26.90
2017-10-11T02:42:20.179Z,23.70
2017-10-11T02:44:47.514Z,28.20
2017-10-11T02:47:14.825Z,25.67
2017-10-11T02:49:42.153Z,28.40
2017-10-11T02:52:09.790Z,26.00
2017-10-11T02:54:37.165Z,25.50
2017-10-11T02:57:04.506Z,29.50
2017-10-11T02:59:31.824Z,28.20
2017-10-11T03:01:59.138Z,30.07
2017-10-11T03:04:26.474Z,29.30
2017-10-11T03:06:53.793Z,27.47
2017-10-11T03:09:21.128Z,27.80
2017-10-11T03:11:48.444Z,28.60
2017-10-11T03:14:15.760Z,24.87
2017-10-11T03:16:43.081Z,26.87
2017-10-11T03:19:10.406Z,26.03
2017-10-11T03:21:37.720Z,24.47
2017-10-11T03:24:05.036Z,26.00
2017-10-11T03:26:32.705Z,28.63
2017-10-11T03:29:00.013Z,23.40
2017-10-11T03:31:27.377Z,24.37
2017-10-11T03:33:54.693Z,26.70
2017-10-11T03:36:22.017Z,20.13
2017-10-11T03:38:49.316Z,24.73
2017-10-11T03:41:16.647Z,23.90
2017-10-11T03:43:43.953Z,23.37
2017-10-11T03:46:11.289Z,23.57
2017-10-11T03:48:38.605Z,24.73
2017-10-11T03:51:05.910Z,20.97
2017-10-11T03:53:33.237Z,28.73
2017-10-11T03:56:00.562Z,22.33
2017-10-11T03:58:27.921Z,22.17
2017-10-11T04:00:55.225Z,24.00
2017-10-11T04:03:22.560Z,22.20
2017-10-11T04:05:49.880Z,26.47
2017-10-11T04:08:17.377Z,26.43
2017-10-11T04:10:46.036Z,21.70
2017-10-11T04:13:13.389Z,19.90
2017-10-11T04:15:40.749Z,22.00
2017-10-11T04:18:08.081Z,25.10
2017-10-11T04:20:35.385Z,24.53
2017-10-11T04:23:02.701Z,23.40
2017-10-11T04:25:30.041Z,24.77
2017-10-11T04:27:57.349Z,22.67
2017-10-11T04:30:24.672Z,25.53
2017-10-11T04:32:52.002Z,20.57
2017-10-11T04:35:19.329Z,23.53
2017-10-11T04:37:46.633Z,23.80
2017-10-11T04:40:13.952Z,24.43
2017-10-11T04:42:41.277Z,23.97
2017-10-11T04:45:08.600Z,24.80
2017-10-11T04:47:35.917Z,21.80
2017-10-11T04:50:03.236Z,22.00
2017-10-11T04:52:30.565Z,21.83
2017-10-11T04:54:57.918Z,21.27
2017-10-11T04:57:25.221Z,23.13
2017-10-11T04:59:52.554Z,22.33
2017-10-11T05:02:19.874Z,20.40
2017-10-11T05:04:47.196Z,22.87
2017-10-11T05:07:14.513Z,21.93
2017-10-11T05:09:41.825Z,21.10
2017-10-11T05:12:09.149Z,21.27
2017-10-11T05:14:36.461Z,20.33
2017-10-11T05:17:03.781Z,21.57
2017-10-11T05:19:31.166Z,20.07
2017-10-11T05:21:58.482Z,23.60
2017-10-11T05:24:25.882Z,19.73
2017-10-11T05:26:53.232Z,21.50
2017-10-11T05:29:20.545Z,20.70
2017-10-11T05:31:47.867Z,24.33
2017-10-11T05:34:15.188Z,21.83
2017-10-11T05:36:42.503Z,20.30
2017-10-11T05:39:09.824Z,21.93
2017-10-11T05:41:37.132Z,21.27
2017-10-11T05:44:04.457Z,24.83
2017-10-11T05:46:31.758Z,22.53
2017-10-11T05:48:59.078Z,22.30
2017-10-11T05:51:26.396Z,20.83
2017-10-11T05:53:53.712Z,22.10
2017-10-11T05:56:21.852Z,21.83
2017-10-11T05:58:49.161Z,22.57
2017-10-11T06:01:16.480Z,18.40
2017-10-11T06:03:43.856Z,22.20
2017-10-11T06:06:11.325Z,19.40
2017-10-11T06:08:38.647Z,22.20
2017-10-11T06:11:05.977Z,18.93
2017-10-11T06:13:33.288Z,21.73
2017-10-11T06:16:00.616Z,18.10
2017-10-11T06:18:27.937Z,20.50
2017-10-11T06:20:55.256Z,19.53
2017-10-11T06:23:22.561Z,20.50
2017-10-11T06:25:49.889Z,17.70
2017-10-11T06:28:17.246Z,19.13
2017-10-11T06:30:44.577Z,18.90
2017-10-11T06:33:11.909Z,20.27
2017-10-11T06:35:39.267Z,18.37
2017-10-11T06:38:06.581Z,17.20
2017-10-11T06:40:33.912Z,18.07
2017-10-11T06:43:01.209Z,14.47
2017-10-11T06:45:28.537Z,16.53
2017-10-11T06:47:55.850Z,15.70
2017-10-11T06:50:23.182Z,16.30
2017-10-11T06:52:50.526Z,14.43
2017-10-11T06:55:17.846Z,14.70
2017-10-11T06:57:45.166Z,14.03
2017-10-11T07:00:12.469Z,17.70
2017-10-11T07:02:39.805Z,12.93
2017-10-11T07:05:07.109Z,13.60
2017-10-11T07:07:34.685Z,15.70
2017-10-11T07:10:02.040Z,14.23
2017-10-11T07:12:29.393Z,11.77
2017-10-11T07:14:56.699Z,13.30
2017-10-11T07:17:24.292Z,13.70
2017-10-11T07:19:51.626Z,13.20
2017-10-11T07:22:18.969Z,14.20
2017-10-11T07:24:46.265Z,15.20
2017-10-11T07:27:13.612Z,15.00
2017-10-11T07:29:40.934Z,12.97
2017-10-11T07:32:08.253Z,9.70
2017-10-11T07:34:35.618Z,13.87
2017-10-11T07:37:02.949Z,10.80
2017-10-11T07:39:30.265Z,12.63
2017-10-11T07:41:57.584Z,12.40
2017-10-11T07:44:24.885Z,10.60
2017-10-11T07:46:52.185Z,9.77
2017-10-11T07:49:19.520Z,10.83
2017-10-11T07:51:46.825Z,11.43
2017-10-11T07:54:14.172Z,10.30
2017-10-11T07:56:41.480Z,8.47
2017-10-11T07:59:08.797Z,12.63
2017-10-11T08:01:36.160Z,12.40
2017-10-11T08:04:03.474Z,8.77
2017-10-11T08:06:30.784Z,8.00
2017-10-11T08:08:58.111Z,12.77
2017-10-11T08:11:25.448Z,12.73
2017-10-11T08:13:52.764Z,9.60
2017-10-11T08:16:20.066Z,7.70
2017-10-11T08:18:47.381Z,8.77
2017-10-11T08:21:14.712Z,8.27
2017-10-11T08:23:42.010Z,10.47
2017-10-11T08:26:09.346Z,8.70
2017-10-11T08:28:36.646Z,7.70
2017-10-11T08:31:03.989Z,7.50
2017-10-11T08:33:31.345Z,11.97
2017-10-11T08:35:58.661Z,9.63
2017-10-11T08:38:25.972Z,9.10
2017-10-11T08:40:53.297Z,9.07
2017-10-11T08:43:20.636Z,7.77
2017-10-11T08:45:47.940Z,7.60
2017-10-11T08:48:15.248Z,10.80
2017-10-11T08:50:42.567Z,8.63
2017-10-11T08:53:09.853Z,8.37
2017-10-11T08:55:37.197Z,7.87
2017-10-11T08:58:04.524Z,7.50
2017-10-11T09:00:31.817Z,8.97
2017-10-11T09:02:59.138Z,10.10
2017-10-11T09:05:26.737Z,8.80
2017-10-11T09:07:54.045Z,7.30
2017-10-11T09:10:21.365Z,9.20
2017-10-11T09:12:48.669Z,7.40
2017-10-11T09:15:15.960Z,8.00
2017-10-11T09:17:43.285Z,8.07
2017-10-11T09:20:10.583Z,6.90
2017-10-11T09:22:37.928Z,8.03
2017-10-11T09:25:05.233Z,8.00
2017-10-11T09:27:32.582Z,9.23
2017-10-11T09:29:59.864Z,5.80
2017-10-11T09:32:27.192Z,7.03
2017-10-11T09:34:54.503Z,7.63
2017-10-11T09:37:21.817Z,9.50
2017-10-11T09:39:49.130Z,8.20
2017-10-11T09:42:16.421Z,7.97
2017-10-11T09:44:43.745Z,7.87
2017-10-11T09:47:11.044Z,6.90
2017-10-11T09:49:38.382Z,6.50
2017-10-11T09:52:06.577Z,7.23
2017-10-11T09:54:33.885Z,5.90
2017-10-11T09:57:01.198Z,7.57
2017-10-11T09:59:28.524Z,7.30
2017-10-11T10:01:55.820Z,6.83
2017-10-11T10:04:23.141Z,6.57
2017-10-11T10:06:50.668Z,5.87
2017-10-11T10:09:17.985Z,6.40
2017-10-11T10:11:45.296Z,7.37
2017-10-11T10:14:12.589Z,6.17
2017-10-11T10:16:39.930Z,6.43
2017-10-11T10:19:07.233Z,7.47
2017-10-11T10:21:34.546Z,6.77
2017-10-11T10:24:01.853Z,7.23
2017-10-11T10:26:29.173Z,8.07
2017-10-11T10:28:56.477Z,7.27
2017-10-11T10:31:23.789Z,8.40
2017-10-11T10:33:51.117Z,5.70
2017-10-11T10:36:18.420Z,7.37
2017-10-11T10:38:45.758Z,6.10
2017-10-11T10:41:13.082Z,7.40
2017-10-11T10:43:40.389Z,6.13
2017-10-11T10:46:07.709Z,9.07
2017-10-11T10:48:35.038Z,9.03
2017-10-11T10:51:02.330Z,8.00
2017-10-11T10:53:29.982Z,5.93
2017-10-11T10:55:57.297Z,6.10
2017-10-11T10:58:24.622Z,9.87
2017-10-11T11:00:51.916Z,6.57
2017-10-11T11:03:19.259Z,9.60
2017-10-11T11:05:46.558Z,8.77
2017-10-11T11:08:13.911Z,9.20
2017-10-11T11:10:41.232Z,11.53
2017-10-11T11:13:08.542Z,9.60
2017-10-11T11:15:35.841Z,9.57
2017-10-11T11:18:03.177Z,8.67
2017-10-11T11:20:30.480Z,9.80
2017-10-11T11:22:57.800Z,10.03
2017-10-11T11:25:25.410Z,9.07
2017-10-11T11:27:52.729Z,9.80
2017-10-11T11:30:20.049Z,12.60
2017-10-11T11:32:47.378Z,13.27
2017-10-11T11:35:14.703Z,11.60
2017-10-11T11:37:42.000Z,9.53
2017-10-11T11:40:09.304Z,16.90
2017-10-11T11:42:36.661Z,10.47
2017-10-11T11:45:03.992Z,11.07
2017-10-11T11:47:31.281Z,11.43
2017-10-11T11:49:58.669Z,12.70
2017-10-11T11:52:25.972Z,10.03
2017-10-11T11:54:53.306Z,11.03
2017-10-11T11:57:20.761Z,9.10
2017-10-11T11:59:48.061Z,11.83
2017-10-11T12:02:15.373Z,9.57
2017-10-11T12:04:42.669Z,11.20
2017-10-11T12:07:10.001Z,11.70
2017-10-11T12:09:37.302Z,13.23
2017-10-11T12:12:04.621Z,13.63
2017-10-11T12:14:32.133Z,11.50
2017-10-11T12:16:59.461Z,11.80
2017-10-11T12:19:26.777Z,11.40
2017-10-11T12:21:54.182Z,9.83
2017-10-11T12:24:21.520Z,11.87
2017-10-11T12:26:48.832Z,10.97
2017-10-11T12:29:16.140Z,10.30
2017-10-11T12:31:43.527Z,14.87
2017-10-11T12:34:10.817Z,9.13
2017-10-11T12:36:38.120Z,12.70
2017-10-11T12:39:05.773Z,10.23
2017-10-11T12:41:33.118Z,10.27
2017-10-11T12:44:00.441Z,12.87
2017-10-11T12:46:27.741Z,11.73
2017-10-11T12:48:55.077Z,9.13
2017-10-11T12:51:22.386Z,9.80
2017-10-11T12:53:49.696Z,10.20
2017-10-11T12:56:17.014Z,9.37
2017-10-11T12:58:44.493Z,9.93
2017-10-11T13:01:11.808Z,9.40
2017-10-11T13:03:39.177Z,9.03
2017-10-11T13:06:06.491Z,8.23
2017-10-11T13:08:33.816Z,9.90
2017-10-11T13:11:01.127Z,11.50
2017-10-11T13:13:28.597Z,11.67
2017-10-11T13:15:55.938Z,8.83
2017-10-11T13:18:23.245Z,8.20
2017-10-11T13:20:50.585Z,8.43
2017-10-11T13:23:17.878Z,9.83
2017-10-11T13:25:45.298Z,9.30
2017-10-11T13:28:12.586Z,7.60
2017-10-11T13:30:39.922Z,7.67
2017-10-11T13:33:07.237Z,11.07
2017-10-11T13:35:34.585Z,9.30
2017-10-11T13:38:01.898Z,9.50
2017-10-11T13:40:29.225Z,9.27
2017-10-11T13:42:56.593Z,7.03
2017-10-11T13:45:23.924Z,7.87
2017-10-11T13:47:51.317Z,11.27
2017-10-11T13:50:18.674Z,7.13
2017-10-11T13:52:45.998Z,8.00
2017-10-11T13:55:13.307Z,6.80
2017-10-11T13:57:40.641Z,9.33
2017-10-11T14:00:07.941Z,9.00
2017-10-11T14:02:35.518Z,8.20
2017-10-11T14:05:02.847Z,8.63
2017-10-11T14:07:30.169Z,7.90
2017-10-11T14:09:57.498Z,9.47
2017-10-11T14:12:24.804Z,7.93
2017-10-11T14:14:52.146Z,8.63
2017-10-11T14:17:19.483Z,8.30
2017-10-11T14:19:46.793Z,9.27
2017-10-11T14:22:14.130Z,8.27
2017-10-11T14:24:41.449Z,8.03
2017-10-11T14:27:08.769Z,8.10
2017-10-11T14:29:36.090Z,8.97
2017-10-11T14:32:03.438Z,8.70
2017-10-11T14:34:30.749Z,9.00
2017-10-11T14:36:58.078Z,8.30
2017-10-11T14:39:25.486Z,8.87
2017-10-11T14:41:52.782Z,10.27
2017-10-11T14:44:20.103Z,10.90
2017-10-11T14:46:47.685Z,10.67
2017-10-11T14:49:15.356Z,9.50
2017-10-11T14:51:42.701Z,9.70
2017-10-11T14:54:10.053Z,9.67
2017-10-11T14:56:37.345Z,9.60
2017-10-11T14:59:04.683Z,9.43
2017-10-11T15:01:31.973Z,8.23
2017-10-11T15:03:59.288Z,10.87
2017-10-11T15:06:26.577Z,8.63
2017-10-11T15:08:53.885Z,8.90
2017-10-11T15:11:21.213Z,13.10
2017-10-11T15:13:48.517Z,10.23
2017-10-11T15:16:16.478Z,13.60
2017-10-11T15:18:43.776Z,12.60
2017-10-11T15:21:11.104Z,8.77
2017-10-11T15:23:38.410Z,8.83
2017-10-11T15:26:05.747Z,10.03
2017-10-11T15:28:33.047Z,11.40
2017-10-11T15:31:00.389Z,8.97
2017-10-11T15:33:27.685Z,12.10
2017-10-11T15:35:55.030Z,7.90
2017-10-11T15:38:23.270Z,7.70
2017-10-11T15:40:50.609Z,8.33
2017-10-11T15:43:17.888Z,10.00
2017-10-11T15:45:45.269Z,7.90
2017-10-11T15:48:12.572Z,7.97
2017-10-11T15:50:39.862Z,9.00
2017-10-11T15:53:07.180Z,6.43
2017-10-11T15:55:34.482Z,7.87
2017-10-11T15:58:01.796Z,9.00
2017-10-11T16:00:29.461Z,5.67
2017-10-11T16:02:56.809Z,6.47
2017-10-11T16:05:24.093Z,6.20
2017-10-11T16:07:51.405Z,6.70
2017-10-11T16:10:18.707Z,10.53
2017-10-11T16:12:46.021Z,7.50
2017-10-11T16:15:13.329Z,6.57
2017-10-11T16:17:40.822Z,7.90
2017-10-11T16:20:08.113Z,6.27
2017-10-11T16:22:35.453Z,7.63
2017-10-11T16:25:02.742Z,6.47
2017-10-11T16:27:30.088Z,6.67
2017-10-11T16:29:57.448Z,8.43
2017-10-11T16:32:24.737Z,6.43
2017-10-11T16:34:52.071Z,7.80
2017-10-11T16:37:19.384Z,5.47
2017-10-11T16:39:46.689Z,7.83
2017-10-11T16:42:13.995Z,5.63
2017-10-11T16:44:41.291Z,6.03
2017-10-11T16:47:08.626Z,6.47
2017-10-11T16:49:35.936Z,5.90
2017-10-11T16:52:03.256Z,5.13
2017-10-11T16:54:30.568Z,9.80
2017-10-11T16:56:57.893Z,5.50
2017-10-11T16:59:26.129Z,5.97
2017-10-11T17:01:53.462Z,6.10
2017-10-11T17:04:20.773Z,5.53
2017-10-11T17:06:48.095Z,6.80
2017-10-11T17:09:15.614Z,6.87
2017-10-11T17:11:42.952Z,9.23
2017-10-11T17:14:10.233Z,8.97
2017-10-11T17:16:37.540Z,6.70
2017-10-11T17:19:04.833Z,7.80
2017-10-11T17:21:32.325Z,6.30
2017-10-11T17:23:59.613Z,6.43
2017-10-11T17:26:26.957Z,8.37
2017-10-11T17:28:54.274Z,9.03
2017-10-11T17:31:21.572Z,7.17
2017-10-11T17:33:48.856Z,6.27
2017-10-11T17:36:16.165Z,7.20
2017-10-11T17:38:43.491Z,8.63
2017-10-11T17:41:10.969Z,7.20
2017-10-11T17:43:38.274Z,8.47
2017-10-11T17:46:05.608Z,10.77
2017-10-11T17:48:32.901Z,7.40
2017-10-11T17:51:00.240Z,8.70
2017-10-11T17:53:27.542Z,8.10
2017-10-11T17:55:54.825Z,7.20
2017-10-11T17:58:22.146Z,7.07
2017-10-11T18:00:49.428Z,9.27
2017-10-11T18:03:16.809Z,6.70
2017-10-11T18:05:44.158Z,9.13
2017-10-11T18:08:11.478Z,9.63
2017-10-11T18:10:38.777Z,8.60
2017-10-11T18:13:06.097Z,10.30
2017-10-11T18:15:33.404Z,7.50
2017-10-11T18:18:00.725Z,7.77
2017-10-11T18:20:28.069Z,7.57
2017-10-11T18:22:55.376Z,6.47
2017-10-11T18:25:22.670Z,6.60
2017-10-11T18:27:50.005Z,8.17
2017-10-11T18:30:17.316Z,7.83
2017-10-11T18:32:44.634Z,12.37
2017-10-11T18:35:11.958Z,8.60
2017-10-11T18:37:39.265Z,7.30
2017-10-11T18:40:06.596Z,8.20
2017-10-11T18:42:33.897Z,8.60
2017-10-11T18:45:01.248Z,9.00
2017-10-11T18:47:28.548Z,10.63
2017-10-11T18:49:55.886Z,9.23
2017-10-11T18:52:23.202Z,7.60
2017-10-11T18:54:50.577Z,10.30
2017-10-11T18:57:17.909Z,8.40
2017-10-11T18:59:45.218Z,11.17
2017-10-11T19:02:12.509Z,12.30
2017-10-11T19:04:39.820Z,9.93
2017-10-11T19:07:07.140Z,9.13
2017-10-11T19:09:34.450Z,9.40
2017-10-11T19:12:01.790Z,10.03
2017-10-11T19:14:29.101Z,11.00
2017-10-11T19:16:56.437Z,9.90
2017-10-11T19:19:23.747Z,8.87
2017-10-11T19:21:51.106Z,11.53
2017-10-11T19:24:18.424Z,11.23
2017-10-11T19:26:45.766Z,9.50
2017-10-11T19:29:13.076Z,10.63
2017-10-11T19:31:40.403Z,10.50
2017-10-11T19:34:07.709Z,11.37
2017-10-11T19:36:35.013Z,8.37
2017-10-11T19:39:02.358Z,12.03
2017-10-11T19:41:29.701Z,7.60
2017-10-11T19:43:56.997Z,11.13
2017-10-11T19:46:24.316Z,10.13
2017-10-11T19:48:51.619Z,8.30
2017-10-11T19:51:18.926Z,8.97
2017-10-11T19:53:46.260Z,9.50
2017-10-11T19:56:13.584Z,11.30
2017-10-11T19:58:41.208Z,11.07
2017-10-11T20:01:08.509Z,8.67
2017-10-11T20:03:35.838Z,9.80
2017-10-11T20:06:03.136Z,10.57
2017-10-11T20:08:30.480Z,8.67
2017-10-11T20:10:57.770Z,9.20
2017-10-11T20:13:25.315Z,7.80
2017-10-11T20:15:52.622Z,8.27
2017-10-11T20:18:19.953Z,8.47
2017-10-11T20:20:47.244Z,8.27
2017-10-11T20:23:14.565Z,10.70
2017-10-11T20:25:41.877Z,9.80
2017-10-11T20:28:09.181Z,9.23
2017-10-11T20:30:36.506Z,8.17
2017-10-11T20:33:03.832Z,10.20
2017-10-11T20:35:31.143Z,7.33
2017-10-11T20:37:58.497Z,7.70
2017-10-11T20:40:25.842Z,9.20
2017-10-11T20:42:53.126Z,9.70
2017-10-11T20:45:20.440Z,9.33
2017-10-11T20:47:47.767Z,11.60
2017-10-11T20:50:15.074Z,9.20
2017-10-11T20:52:42.409Z,10.30
2017-10-11T20:55:09.721Z,9.77
2017-10-11T20:57:37.025Z,9.60
2017-10-11T21:00:04.349Z,11.43
2017-10-11T21:02:32.177Z,9.50
2017-10-11T21:04:59.493Z,7.97
2017-10-11T21:07:26.789Z,11.10
2017-10-11T21:09:54.095Z,14.97
2017-10-11T21:12:21.422Z,13.13
2017-10-11T21:14:48.726Z,8.73
2017-10-11T21:17:16.033Z,12.97
2017-10-11T21:19:43.366Z,7.80
2017-10-11T21:22:10.668Z,7.60
2017-10-11T21:24:38.016Z,8.13
2017-10-11T21:27:05.338Z,8.83
2017-10-11T21:29:32.620Z,9.70
2017-10-11T21:31:59.934Z,13.70
2017-10-11T21:34:27.279Z,9.03
2017-10-11T21:36:54.597Z,7.30
2017-10-11T21:39:21.917Z,8.60
2017-10-11T21:41:49.233Z,7.83
2017-10-11T21:44:16.650Z,10.00
2017-10-11T21:46:43.964Z,7.83
2017-10-11T21:49:11.288Z,7.13
2017-10-11T21:51:38.609Z,8.40
2017-10-11T21:54:05.923Z,6.87
2017-10-11T21:56:33.233Z,9.33
2017-10-11T21:59:00.544Z,6.70
2017-10-11T22:01:27.837Z,9.20
2017-10-11T22:03:55.148Z,6.60
2017-10-11T22:06:22.453Z,9.03
2017-10-11T22:08:49.774Z,10.20
2017-10-11T22:11:17.106Z,10.30
2017-10-11T22:13:44.421Z,8.63
2017-10-11T22:16:12.033Z,6.20
2017-10-11T22:18:39.357Z,9.33
2017-10-11T22:21:06.664Z,6.07
2017-10-11T22:23:33.971Z,7.23
2017-10-11T22:26:01.258Z,6.53
2017-10-11T22:28:28.593Z,11.77
2017-10-11T22:30:55.880Z,8.50
2017-10-11T22:33:23.265Z,6.50
2017-10-11T22:35:50.568Z,7.40
2017-10-11T22:38:17.861Z,8.17
2017-10-11T22:40:45.189Z,7.37
2017-10-11T22:43:12.485Z,7.30
2017-10-11T22:45:39.793Z,7.90
2017-10-11T22:48:07.225Z,7.40
2017-10-11T22:50:34.546Z,7.33
2017-10-11T22:53:01.849Z,8.40
2017-10-11T22:55:29.165Z,7.23
2017-10-11T22:57:56.452Z,6.43
2017-10-11T23:00:23.789Z,6.87
2017-10-11T23:02:51.076Z,6.43
2017-10-11T23:05:18.421Z,6.40
2017-10-11T23:07:45.704Z,7.33
2017-10-11T23:10:13.017Z,7.43
2017-10-11T23:12:40.315Z,8.43
2017-10-11T23:15:07.618Z,8.87
2017-10-11T23:17:34.970Z,8.10
2017-10-11T23:20:03.165Z,6.70
2017-10-11T23:22:30.477Z,6.10
2017-10-11T23:24:57.765Z,7.00
2017-10-11T23:27:25.252Z,6.47
2017-10-11T23:29:52.578Z,6.23
2017-10-11T23:32:19.889Z,9.63
2017-10-11T23:34:47.180Z,7.13
2017-10-11T23:37:14.524Z,7.37
2017-10-11T23:39:41.819Z,7.47
2017-10-11T23:42:09.164Z,6.00
2017-10-11T23:44:36.459Z,7.50
2017-10-11T23:47:03.800Z,7.27
2017-10-11T23:49:31.093Z,6.83
2017-10-11T23:51:58.473Z,7.60
2017-10-11T23:54:25.818Z,7.00
2017-10-11T23:56:53.132Z,8.13
2017-10-11T23:59:20.440Z,7.50
